Cato, Indiana
Current Conditions -  °F | °C
As of 7:55 AM on Saturday 20 Dec 2014 (Local Time) from KHNB Reporting Station
Overcast Overcast  
Wind Chill: 25°   Ceiling: 5000
Heat Index: 30°   Visibility: 8mi
Dew Point: 25°   Wind: 5mph
Humidity: 80%   Direction: 40°NE
Pressure: 30.3"   Gusts: NA
Location:  38.3488°N, 87.2217°W
Report Text: KHNB 201355Z AUTO 04004KT 8SM OVC050 M01/M04 A3030 RMK AO1
Loading
Personal Weather Stations






























Interactive Weather Map New forecast layout! Learn more

10-Day Weather Forecast

Advertisements
Track Severe Weather on mobile